sensor_id;sensor_type;location;lat;lon;timestamp;temperature;humidity
12922;DHT22;6528;48.086;16.282;2023-03-23T00:01:25;23.80;7.40
12922;DHT22;6528;48.086;16.282;2023-03-23T00:03:53;23.80;8.00
12922;DHT22;6528;48.086;16.282;2023-03-23T00:06:23;23.80;8.60
12922;DHT22;6528;48.086;16.282;2023-03-23T00:08:50;23.80;9.10
12922;DHT22;6528;48.086;16.282;2023-03-23T00:11:23;23.80;9.20
12922;DHT22;6528;48.086;16.282;2023-03-23T00:13:52;23.80;10.30
12922;DHT22;6528;48.086;16.282;2023-03-23T00:16:20;23.80;11.50
12922;DHT22;6528;48.086;16.282;2023-03-23T00:18:55;23.80;11.30
12922;DHT22;6528;48.086;16.282;2023-03-23T00:21:22;23.80;11.80
12922;DHT22;6528;48.086;16.282;2023-03-23T00:26:29;23.80;13.20
12922;DHT22;6528;48.086;16.282;2023-03-23T00:29:03;23.80;14.30
12922;DHT22;6528;48.086;16.282;2023-03-23T00:31:29;23.80;14.70
12922;DHT22;6528;48.086;16.282;2023-03-23T00:34:03;23.80;14.80
12922;DHT22;6528;48.086;16.282;2023-03-23T00:36:31;23.80;15.80
12922;DHT22;6528;48.086;16.282;2023-03-23T00:38:57;23.80;16.30
12922;DHT22;6528;48.086;16.282;2023-03-23T00:41:27;23.80;30.00
12922;DHT22;6528;48.086;16.282;2023-03-23T00:43:57;23.80;17.00
12922;DHT22;6528;48.086;16.282;2023-03-23T00:46:24;23.80;18.10
12922;DHT22;6528;48.086;16.282;2023-03-23T00:48:50;23.80;18.50
12922;DHT22;6528;48.086;16.282;2023-03-23T00:51:17;23.80;18.90
12922;DHT22;6528;48.086;16.282;2023-03-23T00:53:43;23.80;20.40
12922;DHT22;6528;48.086;16.282;2023-03-23T00:56:09;23.80;20.60
12922;DHT22;6528;48.086;16.282;2023-03-23T00:58:35;23.80;20.10
12922;DHT22;6528;48.086;16.282;2023-03-23T01:01:02;23.80;20.30
12922;DHT22;6528;48.086;16.282;2023-03-23T01:03:27;23.80;21.90
12922;DHT22;6528;48.086;16.282;2023-03-23T01:05:55;23.80;21.90
12922;DHT22;6528;48.086;16.282;2023-03-23T01:08:22;23.80;22.30
12922;DHT22;6528;48.086;16.282;2023-03-23T01:10:49;23.80;22.80
12922;DHT22;6528;48.086;16.282;2023-03-23T01:13:15;23.80;22.90
12922;DHT22;6528;48.086;16.282;2023-03-23T01:15:42;23.80;23.40
12922;DHT22;6528;48.086;16.282;2023-03-23T01:18:08;23.80;23.90
12922;DHT22;6528;48.086;16.282;2023-03-23T01:20:35;23.80;24.80
12922;DHT22;6528;48.086;16.282;2023-03-23T01:23:01;23.70;24.50
12922;DHT22;6528;48.086;16.282;2023-03-23T01:25:29;23.80;25.10
12922;DHT22;6528;48.086;16.282;2023-03-23T01:27:56;23.80;25.20
12922;DHT22;6528;48.086;16.282;2023-03-23T01:30:22;23.80;25.40
12922;DHT22;6528;48.086;16.282;2023-03-23T01:32:49;23.70;25.70
12922;DHT22;6528;48.086;16.282;2023-03-23T01:35:15;23.80;26.30
12922;DHT22;6528;48.086;16.282;2023-03-23T01:37:41;23.80;26.30
12922;DHT22;6528;48.086;16.282;2023-03-23T01:40:08;23.80;27.20
12922;DHT22;6528;48.086;16.282;2023-03-23T01:42:37;23.70;27.10
12922;DHT22;6528;48.086;16.282;2023-03-23T01:45:24;23.70;27.00
12922;DHT22;6528;48.086;16.282;2023-03-23T01:48:01;23.70;27.50
12922;DHT22;6528;48.086;16.282;2023-03-23T01:50:32;23.80;28.20
12922;DHT22;6528;48.086;16.282;2023-03-23T01:53:02;23.70;28.00
12922;DHT22;6528;48.086;16.282;2023-03-23T01:55:32;23.70;28.60
12922;DHT22;6528;48.086;16.282;2023-03-23T01:57:58;23.70;28.80
12922;DHT22;6528;48.086;16.282;2023-03-23T02:00:24;23.70;28.70
12922;DHT22;6528;48.086;16.282;2023-03-23T02:02:51;23.70;29.00
12922;DHT22;6528;48.086;16.282;2023-03-23T02:05:33;23.70;31.00
12922;DHT22;6528;48.086;16.282;2023-03-23T02:08:01;23.70;30.80
12922;DHT22;6528;48.086;16.282;2023-03-23T02:10:32;23.70;32.40
12922;DHT22;6528;48.086;16.282;2023-03-23T02:13:00;23.70;32.70
12922;DHT22;6528;48.086;16.282;2023-03-23T02:15:33;23.70;32.10
12922;DHT22;6528;48.086;16.282;2023-03-23T02:23:49;23.70;33.20
12922;DHT22;6528;48.086;16.282;2023-03-23T02:37:45;23.70;36.20
12922;DHT22;6528;48.086;16.282;2023-03-23T02:40:17;23.70;36.10
12922;DHT22;6528;48.086;16.282;2023-03-23T02:42:48;23.70;36.20
12922;DHT22;6528;48.086;16.282;2023-03-23T02:45:16;23.70;36.30
12922;DHT22;6528;48.086;16.282;2023-03-23T02:47:44;23.70;36.40
12922;DHT22;6528;48.086;16.282;2023-03-23T02:50:14;23.70;36.80
12922;DHT22;6528;48.086;16.282;2023-03-23T02:52:43;23.70;37.10
12922;DHT22;6528;48.086;16.282;2023-03-23T02:55:11;23.70;37.10
12922;DHT22;6528;48.086;16.282;2023-03-23T02:57:38;23.70;37.20
12922;DHT22;6528;48.086;16.282;2023-03-23T03:00:05;23.70;37.30
12922;DHT22;6528;48.086;16.282;2023-03-23T03:02:38;23.70;38.50
12922;DHT22;6528;48.086;16.282;2023-03-23T03:05:25;23.70;38.90
12922;DHT22;6528;48.086;16.282;2023-03-23T03:08:15;23.60;38.20
12922;DHT22;6528;48.086;16.282;2023-03-23T03:13:44;23.70;39.10
12922;DHT22;6528;48.086;16.282;2023-03-23T03:19:09;23.70;39.30
12922;DHT22;6528;48.086;16.282;2023-03-23T03:21:40;23.70;39.40
12922;DHT22;6528;48.086;16.282;2023-03-23T03:24:08;23.60;38.90
12922;DHT22;6528;48.086;16.282;2023-03-23T03:26:39;23.70;39.40
12922;DHT22;6528;48.086;16.282;2023-03-23T03:29:07;23.70;39.80
12922;DHT22;6528;48.086;16.282;2023-03-23T03:31:38;23.60;39.60
12922;DHT22;6528;48.086;16.282;2023-03-23T03:34:06;23.70;41.20
12922;DHT22;6528;48.086;16.282;2023-03-23T03:36:34;23.70;40.10
12922;DHT22;6528;48.086;16.282;2023-03-23T03:39:05;23.70;40.40
12922;DHT22;6528;48.086;16.282;2023-03-23T03:41:36;23.70;57.90
12922;DHT22;6528;48.086;16.282;2023-03-23T03:44:04;23.70;41.00
12922;DHT22;6528;48.086;16.282;2023-03-23T03:46:30;23.60;41.90
12922;DHT22;6528;48.086;16.282;2023-03-23T03:48:57;23.60;41.20
12922;DHT22;6528;48.086;16.282;2023-03-23T03:51:24;23.70;42.30
12922;DHT22;6528;48.086;16.282;2023-03-23T03:53:50;23.60;41.20
12922;DHT22;6528;48.086;16.282;2023-03-23T03:56:16;23.60;41.50
12922;DHT22;6528;48.086;16.282;2023-03-23T03:58:42;23.60;41.10
12922;DHT22;6528;48.086;16.282;2023-03-23T04:01:11;23.70;40.90
12922;DHT22;6528;48.086;16.282;2023-03-23T04:03:37;23.60;41.00
12922;DHT22;6528;48.086;16.282;2023-03-23T04:06:03;23.60;41.50
12922;DHT22;6528;48.086;16.282;2023-03-23T04:08:29;23.60;41.30
12922;DHT22;6528;48.086;16.282;2023-03-23T04:10:55;23.70;42.20
12922;DHT22;6528;48.086;16.282;2023-03-23T04:13:22;23.70;42.50
12922;DHT22;6528;48.086;16.282;2023-03-23T04:15:48;23.60;42.80
12922;DHT22;6528;48.086;16.282;2023-03-23T04:18:15;23.60;42.90
12922;DHT22;6528;48.086;16.282;2023-03-23T04:20:46;23.60;43.00
12922;DHT22;6528;48.086;16.282;2023-03-23T04:23:18;23.70;43.20
12922;DHT22;6528;48.086;16.282;2023-03-23T04:25:52;23.60;42.20
12922;DHT22;6528;48.086;16.282;2023-03-23T04:28:23;23.60;42.70
12922;DHT22;6528;48.086;16.282;2023-03-23T04:30:51;23.60;42.20
12922;DHT22;6528;48.086;16.282;2023-03-23T04:33:20;23.60;42.20
12922;DHT22;6528;48.086;16.282;2023-03-23T04:35:47;23.60;43.40
12922;DHT22;6528;48.086;16.282;2023-03-23T04:38:15;23.60;42.20
12922;DHT22;6528;48.086;16.282;2023-03-23T04:40:43;23.60;42.20
12922;DHT22;6528;48.086;16.282;2023-03-23T04:43:09;23.60;42.50
12922;DHT22;6528;48.086;16.282;2023-03-23T04:45:38;23.60;43.70
12922;DHT22;6528;48.086;16.282;2023-03-23T04:48:07;23.60;43.10
12922;DHT22;6528;48.086;16.282;2023-03-23T04:50:34;23.60;43.70
12922;DHT22;6528;48.086;16.282;2023-03-23T04:53:02;23.60;43.10
12922;DHT22;6528;48.086;16.282;2023-03-23T04:55:34;23.60;43.20
12922;DHT22;6528;48.086;16.282;2023-03-23T04:58:07;23.60;43.20
12922;DHT22;6528;48.086;16.282;2023-03-23T05:00:34;23.60;43.20
12922;DHT22;6528;48.086;16.282;2023-03-23T05:03:00;23.60;43.30
12922;DHT22;6528;48.086;16.282;2023-03-23T05:05:27;23.60;42.90
12922;DHT22;6528;48.086;16.282;2023-03-23T05:07:56;23.60;43.80
12922;DHT22;6528;48.086;16.282;2023-03-23T05:10:22;23.70;43.90
12922;DHT22;6528;48.086;16.282;2023-03-23T05:12:48;23.60;43.60
12922;DHT22;6528;48.086;16.282;2023-03-23T05:15:15;23.60;44.70
12922;DHT22;6528;48.086;16.282;2023-03-23T05:17:42;23.60;44.40
12922;DHT22;6528;48.086;16.282;2023-03-23T05:20:13;23.60;44.90
12922;DHT22;6528;48.086;16.282;2023-03-23T05:22:41;23.60;44.60
12922;DHT22;6528;48.086;16.282;2023-03-23T05:25:07;23.60;45.60
12922;DHT22;6528;48.086;16.282;2023-03-23T05:27:37;23.60;44.90
12922;DHT22;6528;48.086;16.282;2023-03-23T05:30:05;23.60;46.20
12922;DHT22;6528;48.086;16.282;2023-03-23T05:32:31;23.60;45.30
12922;DHT22;6528;48.086;16.282;2023-03-23T05:34:58;23.60;45.00
12922;DHT22;6528;48.086;16.282;2023-03-23T05:37:25;23.60;45.20
12922;DHT22;6528;48.086;16.282;2023-03-23T05:39:52;23.60;45.10
12922;DHT22;6528;48.086;16.282;2023-03-23T05:42:22;23.60;45.00
12922;DHT22;6528;48.086;16.282;2023-03-23T05:44:49;23.60;45.80
12922;DHT22;6528;48.086;16.282;2023-03-23T05:47:15;23.60;46.70
12922;DHT22;6528;48.086;16.282;2023-03-23T05:49:41;23.60;45.80
12922;DHT22;6528;48.086;16.282;2023-03-23T05:52:07;23.60;46.10
12922;DHT22;6528;48.086;16.282;2023-03-23T05:54:33;23.60;46.00
12922;DHT22;6528;48.086;16.282;2023-03-23T05:57:00;23.60;46.10
12922;DHT22;6528;48.086;16.282;2023-03-23T05:59:26;23.50;46.00
12922;DHT22;6528;48.086;16.282;2023-03-23T06:01:52;23.50;46.10
12922;DHT22;6528;48.086;16.282;2023-03-23T06:04:19;23.50;47.20
12922;DHT22;6528;48.086;16.282;2023-03-23T06:06:46;23.50;45.80
12922;DHT22;6528;48.086;16.282;2023-03-23T06:09:12;23.50;46.00
12922;DHT22;6528;48.086;16.282;2023-03-23T06:11:37;23.50;45.40
12922;DHT22;6528;48.086;16.282;2023-03-23T06:14:03;23.50;45.70
12922;DHT22;6528;48.086;16.282;2023-03-23T06:16:29;23.50;46.60
12922;DHT22;6528;48.086;16.282;2023-03-23T06:18:55;23.50;45.10
12922;DHT22;6528;48.086;16.282;2023-03-23T06:21:22;23.50;45.60
12922;DHT22;6528;48.086;16.282;2023-03-23T06:23:48;23.50;45.20
12922;DHT22;6528;48.086;16.282;2023-03-23T06:26:15;23.50;46.20
12922;DHT22;6528;48.086;16.282;2023-03-23T06:28:43;23.50;45.90
12922;DHT22;6528;48.086;16.282;2023-03-23T06:31:09;23.50;44.70
12922;DHT22;6528;48.086;16.282;2023-03-23T06:33:36;23.50;45.40
12922;DHT22;6528;48.086;16.282;2023-03-23T06:36:03;23.50;45.30
12922;DHT22;6528;48.086;16.282;2023-03-23T06:38:30;23.50;44.90
12922;DHT22;6528;48.086;16.282;2023-03-23T06:40:57;23.50;45.10
12922;DHT22;6528;48.086;16.282;2023-03-23T06:43:23;23.50;45.60
12922;DHT22;6528;48.086;16.282;2023-03-23T06:45:50;23.50;45.30
12922;DHT22;6528;48.086;16.282;2023-03-23T06:48:16;23.50;45.10
12922;DHT22;6528;48.086;16.282;2023-03-23T06:50:44;23.50;44.80
12922;DHT22;6528;48.086;16.282;2023-03-23T06:53:10;23.50;44.60
12922;DHT22;6528;48.086;16.282;2023-03-23T06:55:36;23.50;44.80
12922;DHT22;6528;48.086;16.282;2023-03-23T06:58:04;23.50;44.10
12922;DHT22;6528;48.086;16.282;2023-03-23T07:00:32;23.50;44.30
12922;DHT22;6528;48.086;16.282;2023-03-23T07:02:57;23.50;44.30
12922;DHT22;6528;48.086;16.282;2023-03-23T07:05:23;23.50;44.20
12922;DHT22;6528;48.086;16.282;2023-03-23T07:07:50;23.50;45.30
12922;DHT22;6528;48.086;16.282;2023-03-23T07:10:16;23.50;44.50
12922;DHT22;6528;48.086;16.282;2023-03-23T07:12:42;23.50;43.60
12922;DHT22;6528;48.086;16.282;2023-03-23T07:15:09;23.50;44.10
12922;DHT22;6528;48.086;16.282;2023-03-23T07:17:37;23.50;44.10
12922;DHT22;6528;48.086;16.282;2023-03-23T07:20:03;23.50;44.10
12922;DHT22;6528;48.086;16.282;2023-03-23T07:22:30;23.50;44.80
12922;DHT22;6528;48.086;16.282;2023-03-23T07:24:56;23.50;44.40
12922;DHT22;6528;48.086;16.282;2023-03-23T07:27:22;23.50;43.70
12922;DHT22;6528;48.086;16.282;2023-03-23T07:29:47;23.40;43.70
12922;DHT22;6528;48.086;16.282;2023-03-23T07:32:13;23.50;43.30
12922;DHT22;6528;48.086;16.282;2023-03-23T07:34:39;23.40;43.30
12922;DHT22;6528;48.086;16.282;2023-03-23T07:37:05;23.40;60.60
12922;DHT22;6528;48.086;16.282;2023-03-23T07:39:31;23.40;44.10
12922;DHT22;6528;48.086;16.282;2023-03-23T07:41:58;23.40;43.20
12922;DHT22;6528;48.086;16.282;2023-03-23T07:44:24;23.40;42.50
12922;DHT22;6528;48.086;16.282;2023-03-23T07:46:50;23.40;43.90
12922;DHT22;6528;48.086;16.282;2023-03-23T07:49:17;23.40;42.70
12922;DHT22;6528;48.086;16.282;2023-03-23T07:51:43;23.50;43.70
12922;DHT22;6528;48.086;16.282;2023-03-23T07:54:10;23.40;43.70
12922;DHT22;6528;48.086;16.282;2023-03-23T07:56:37;23.50;43.00
12922;DHT22;6528;48.086;16.282;2023-03-23T07:59:05;23.40;43.10
12922;DHT22;6528;48.086;16.282;2023-03-23T08:01:32;23.40;43.20
12922;DHT22;6528;48.086;16.282;2023-03-23T08:03:58;23.40;42.90
12922;DHT22;6528;48.086;16.282;2023-03-23T08:06:25;23.40;42.30
12922;DHT22;6528;48.086;16.282;2023-03-23T08:08:52;23.50;42.20
12922;DHT22;6528;48.086;16.282;2023-03-23T08:11:18;23.50;42.10
12922;DHT22;6528;48.086;16.282;2023-03-23T08:13:45;23.50;42.70
12922;DHT22;6528;48.086;16.282;2023-03-23T08:16:11;23.50;42.30
12922;DHT22;6528;48.086;16.282;2023-03-23T08:18:37;23.50;42.10
12922;DHT22;6528;48.086;16.282;2023-03-23T08:21:05;23.50;41.70
12922;DHT22;6528;48.086;16.282;2023-03-23T08:23:35;23.50;41.30
12922;DHT22;6528;48.086;16.282;2023-03-23T08:26:03;23.50;41.50
12922;DHT22;6528;48.086;16.282;2023-03-23T08:28:30;23.50;41.30
12922;DHT22;6528;48.086;16.282;2023-03-23T08:30:56;23.50;41.10
12922;DHT22;6528;48.086;16.282;2023-03-23T08:33:22;23.50;41.40
12922;DHT22;6528;48.086;16.282;2023-03-23T08:35:58;23.50;41.00
12922;DHT22;6528;48.086;16.282;2023-03-23T08:38:24;23.50;40.90
12922;DHT22;6528;48.086;16.282;2023-03-23T08:40:50;23.50;40.50
12922;DHT22;6528;48.086;16.282;2023-03-23T08:43:17;23.50;41.30
12922;DHT22;6528;48.086;16.282;2023-03-23T08:45:43;23.50;41.90
12922;DHT22;6528;48.086;16.282;2023-03-23T08:48:09;23.50;40.20
12922;DHT22;6528;48.086;16.282;2023-03-23T08:50:36;23.50;40.20
12922;DHT22;6528;48.086;16.282;2023-03-23T08:53:02;23.40;39.30
12922;DHT22;6528;48.086;16.282;2023-03-23T08:55:28;23.50;38.90
12922;DHT22;6528;48.086;16.282;2023-03-23T08:57:55;23.50;37.60
12922;DHT22;6528;48.086;16.282;2023-03-23T09:00:21;23.50;38.10
12922;DHT22;6528;48.086;16.282;2023-03-23T09:02:51;23.60;37.60
12922;DHT22;6528;48.086;16.282;2023-03-23T09:05:20;23.60;37.10
12922;DHT22;6528;48.086;16.282;2023-03-23T09:07:49;23.70;36.80
12922;DHT22;6528;48.086;16.282;2023-03-23T09:10:16;23.70;37.60
12922;DHT22;6528;48.086;16.282;2023-03-23T09:12:43;23.70;36.80
12922;DHT22;6528;48.086;16.282;2023-03-23T09:15:12;23.70;36.50
12922;DHT22;6528;48.086;16.282;2023-03-23T09:17:47;23.70;36.60
12922;DHT22;6528;48.086;16.282;2023-03-23T09:20:16;23.70;36.50
12922;DHT22;6528;48.086;16.282;2023-03-23T09:22:44;23.70;35.30
12922;DHT22;6528;48.086;16.282;2023-03-23T09:25:12;23.70;35.80
12922;DHT22;6528;48.086;16.282;2023-03-23T09:27:39;23.70;34.70
12922;DHT22;6528;48.086;16.282;2023-03-23T09:30:14;23.70;34.20
12922;DHT22;6528;48.086;16.282;2023-03-23T09:32:40;23.70;33.30
12922;DHT22;6528;48.086;16.282;2023-03-23T09:35:09;23.70;32.90
12922;DHT22;6528;48.086;16.282;2023-03-23T09:37:38;23.70;33.60
12922;DHT22;6528;48.086;16.282;2023-03-23T09:40:09;23.70;32.80
12922;DHT22;6528;48.086;16.282;2023-03-23T09:45:29;23.70;33.40
12922;DHT22;6528;48.086;16.282;2023-03-23T09:50:42;23.70;31.90
12922;DHT22;6528;48.086;16.282;2023-03-23T09:53:21;23.70;31.60
12922;DHT22;6528;48.086;16.282;2023-03-23T09:55:49;23.70;32.20
12922;DHT22;6528;48.086;16.282;2023-03-23T09:58:43;23.80;30.90
12922;DHT22;6528;48.086;16.282;2023-03-23T10:01:23;23.80;32.00
12922;DHT22;6528;48.086;16.282;2023-03-23T10:03:52;23.80;31.20
12922;DHT22;6528;48.086;16.282;2023-03-23T10:06:21;23.80;31.50
12922;DHT22;6528;48.086;16.282;2023-03-23T10:08:52;23.80;30.80
12922;DHT22;6528;48.086;16.282;2023-03-23T10:19:49;23.80;31.00
12922;DHT22;6528;48.086;16.282;2023-03-23T10:22:32;23.80;30.60
12922;DHT22;6528;48.086;16.282;2023-03-23T10:25:15;23.80;30.30
12922;DHT22;6528;48.086;16.282;2023-03-23T10:33:24;23.70;30.60
12922;DHT22;6528;48.086;16.282;2023-03-23T10:38:56;23.70;29.00
12922;DHT22;6528;48.086;16.282;2023-03-23T10:41:23;23.60;29.10
12922;DHT22;6528;48.086;16.282;2023-03-23T10:43:49;23.60;28.50
12922;DHT22;6528;48.086;16.282;2023-03-23T10:49:21;23.60;28.40
12922;DHT22;6528;48.086;16.282;2023-03-23T10:54:39;23.50;26.70
12922;DHT22;6528;48.086;16.282;2023-03-23T10:57:20;23.40;26.10
12922;DHT22;6528;48.086;16.282;2023-03-23T10:59:47;23.30;25.00
12922;DHT22;6528;48.086;16.282;2023-03-23T11:02:24;23.30;23.20
12922;DHT22;6528;48.086;16.282;2023-03-23T11:04:57;23.30;37.60
12922;DHT22;6528;48.086;16.282;2023-03-23T11:07:28;23.30;22.10
12922;DHT22;6528;48.086;16.282;2023-03-23T11:09:57;23.40;22.80
12922;DHT22;6528;48.086;16.282;2023-03-23T11:12:33;23.40;21.90
12922;DHT22;6528;48.086;16.282;2023-03-23T11:15:36;23.40;21.70
12922;DHT22;6528;48.086;16.282;2023-03-23T11:18:10;23.50;21.60
12922;DHT22;6528;48.086;16.282;2023-03-23T11:20:41;23.50;21.40
12922;DHT22;6528;48.086;16.282;2023-03-23T11:23:23;23.50;21.50
12922;DHT22;6528;48.086;16.282;2023-03-23T11:25:54;23.50;21.30
12922;DHT22;6528;48.086;16.282;2023-03-23T11:28:20;23.50;21.20
12922;DHT22;6528;48.086;16.282;2023-03-23T11:30:46;23.40;21.30
12922;DHT22;6528;48.086;16.282;2023-03-23T11:33:12;23.50;20.50
12922;DHT22;6528;48.086;16.282;2023-03-23T11:35:43;23.50;20.30
12922;DHT22;6528;48.086;16.282;2023-03-23T11:38:17;23.50;19.80
12922;DHT22;6528;48.086;16.282;2023-03-23T11:40:51;23.40;19.70
12922;DHT22;6528;48.086;16.282;2023-03-23T11:43:23;23.40;19.60
12922;DHT22;6528;48.086;16.282;2023-03-23T11:46:02;23.40;20.00
12922;DHT22;6528;48.086;16.282;2023-03-23T11:48:51;23.40;19.20
12922;DHT22;6528;48.086;16.282;2023-03-23T11:54:04;23.40;18.70
12922;DHT22;6528;48.086;16.282;2023-03-23T11:56:35;23.40;18.50
12922;DHT22;6528;48.086;16.282;2023-03-23T11:59:02;23.40;17.60
12922;DHT22;6528;48.086;16.282;2023-03-23T12:06:57;23.40;17.80
12922;DHT22;6528;48.086;16.282;2023-03-23T12:09:37;23.40;17.10
12922;DHT22;6528;48.086;16.282;2023-03-23T12:15:05;23.40;16.20
12922;DHT22;6528;48.086;16.282;2023-03-23T12:23:07;23.30;15.40
12922;DHT22;6528;48.086;16.282;2023-03-23T12:25:42;23.30;15.10
12922;DHT22;6528;48.086;16.282;2023-03-23T12:28:33;23.30;14.80
12922;DHT22;6528;48.086;16.282;2023-03-23T12:33:40;23.30;14.20
12922;DHT22;6528;48.086;16.282;2023-03-23T12:36:43;23.30;14.30
12922;DHT22;6528;48.086;16.282;2023-03-23T12:45:00;23.30;12.30
12922;DHT22;6528;48.086;16.282;2023-03-23T12:53:03;23.30;11.80
12922;DHT22;6528;48.086;16.282;2023-03-23T12:55:39;23.30;11.40
12922;DHT22;6528;48.086;16.282;2023-03-23T12:58:17;23.30;11.10
12922;DHT22;6528;48.086;16.282;2023-03-23T13:06:31;23.30;10.00
12922;DHT22;6528;48.086;16.282;2023-03-23T13:09:15;23.20;9.60
12922;DHT22;6528;48.086;16.282;2023-03-23T13:11:43;23.20;9.90
12922;DHT22;6528;48.086;16.282;2023-03-23T13:20:32;23.20;9.10
12922;DHT22;6528;48.086;16.282;2023-03-23T13:28:00;23.20;7.70
12922;DHT22;6528;48.086;16.282;2023-03-23T13:30:28;23.20;6.90
12922;DHT22;6528;48.086;16.282;2023-03-23T13:33:05;23.20;6.50
12922;DHT22;6528;48.086;16.282;2023-03-23T13:35:37;23.20;6.80
12922;DHT22;6528;48.086;16.282;2023-03-23T13:38:23;23.20;6.20
12922;DHT22;6528;48.086;16.282;2023-03-23T13:40:51;23.20;5.70
12922;DHT22;6528;48.086;16.282;2023-03-23T13:43:32;23.20;5.70
12922;DHT22;6528;48.086;16.282;2023-03-23T13:49:04;23.20;4.60
12922;DHT22;6528;48.086;16.282;2023-03-23T13:57:02;23.10;3.60
12922;DHT22;6528;48.086;16.282;2023-03-23T13:59:32;23.20;3.40
12922;DHT22;6528;48.086;16.282;2023-03-23T14:02:32;23.20;3.10
12922;DHT22;6528;48.086;16.282;2023-03-23T14:05:32;23.20;2.80
12922;DHT22;6528;48.086;16.282;2023-03-23T14:10:40;23.10;2.00
12922;DHT22;6528;48.086;16.282;2023-03-23T14:13:21;23.10;2.30
12922;DHT22;6528;48.086;16.282;2023-03-23T14:16:00;23.10;1.80
12922;DHT22;6528;48.086;16.282;2023-03-23T14:18:39;23.10;1.20
12922;DHT22;6528;48.086;16.282;2023-03-23T14:21:14;23.10;1.00
12922;DHT22;6528;48.086;16.282;2023-03-23T14:23:40;23.10;1.00
12922;DHT22;6528;48.086;16.282;2023-03-23T14:26:14;23.10;1.00
12922;DHT22;6528;48.086;16.282;2023-03-23T14:28:42;23.10;1.00
12922;DHT22;6528;48.086;16.282;2023-03-23T14:31:25;23.10;1.00
12922;DHT22;6528;48.086;16.282;2023-03-23T14:33:53;23.10;1.00
12922;DHT22;6528;48.086;16.282;2023-03-23T14:36:37;23.10;1.00
12922;DHT22;6528;48.086;16.282;2023-03-23T14:39:13;23.10;1.00
12922;DHT22;6528;48.086;16.282;2023-03-23T14:41:40;23.10;1.00
12922;DHT22;6528;48.086;16.282;2023-03-23T14:44:08;23.10;1.00
12922;DHT22;6528;48.086;16.282;2023-03-23T14:46:36;23.10;1.00
12922;DHT22;6528;48.086;16.282;2023-03-23T14:49:04;23.10;1.00
12922;DHT22;6528;48.086;16.282;2023-03-23T14:51:31;23.10;1.00
12922;DHT22;6528;48.086;16.282;2023-03-23T14:53:59;23.10;1.00
12922;DHT22;6528;48.086;16.282;2023-03-23T14:56:34;23.10;1.00
12922;DHT22;6528;48.086;16.282;2023-03-23T14:59:06;23.10;1.00
12922;DHT22;6528;48.086;16.282;2023-03-23T15:01:36;23.10;1.00
12922;DHT22;6528;48.086;16.282;2023-03-23T15:04:23;23.10;1.00
12922;DHT22;6528;48.086;16.282;2023-03-23T15:06:54;23.10;1.00
12922;DHT22;6528;48.086;16.282;2023-03-23T15:09:23;23.10;1.00
12922;DHT22;6528;48.086;16.282;2023-03-23T15:12:00;23.10;1.00
12922;DHT22;6528;48.086;16.282;2023-03-23T15:14:34;23.10;1.00
12922;DHT22;6528;48.086;16.282;2023-03-23T15:17:02;23.10;1.00
12922;DHT22;6528;48.086;16.282;2023-03-23T15:19:31;23.10;1.00
12922;DHT22;6528;48.086;16.282;2023-03-23T15:22:05;23.10;1.00
12922;DHT22;6528;48.086;16.282;2023-03-23T15:24:39;23.10;1.00
12922;DHT22;6528;48.086;16.282;2023-03-23T15:29:31;23.10;1.00
12922;DHT22;6528;48.086;16.282;2023-03-23T15:31:57;23.10;1.00
12922;DHT22;6528;48.086;16.282;2023-03-23T15:34:32;23.10;1.00
12922;DHT22;6528;48.086;16.282;2023-03-23T15:37:02;23.10;1.00
12922;DHT22;6528;48.086;16.282;2023-03-23T15:39:29;23.10;6.90
12922;DHT22;6528;48.086;16.282;2023-03-23T15:41:56;23.10;1.00
12922;DHT22;6528;48.086;16.282;2023-03-23T15:44:31;23.10;1.00
12922;DHT22;6528;48.086;16.282;2023-03-23T15:47:13;23.10;1.00
12922;DHT22;6528;48.086;16.282;2023-03-23T15:49:41;23.10;1.00
12922;DHT22;6528;48.086;16.282;2023-03-23T15:52:10;23.10;1.00
12922;DHT22;6528;48.086;16.282;2023-03-23T15:54:37;23.10;1.00
12922;DHT22;6528;48.086;16.282;2023-03-23T15:57:03;23.00;1.00
12922;DHT22;6528;48.086;16.282;2023-03-23T15:59:28;23.10;1.00
12922;DHT22;6528;48.086;16.282;2023-03-23T16:01:56;23.10;1.00
12922;DHT22;6528;48.086;16.282;2023-03-23T16:04:23;23.10;1.00
12922;DHT22;6528;48.086;16.282;2023-03-23T16:06:55;23.10;1.00
12922;DHT22;6528;48.086;16.282;2023-03-23T16:09:22;23.10;1.00
12922;DHT22;6528;48.086;16.282;2023-03-23T16:11:48;23.10;1.00
12922;DHT22;6528;48.086;16.282;2023-03-23T16:14:15;23.10;1.00
12922;DHT22;6528;48.086;16.282;2023-03-23T16:16:48;23.00;1.00
12922;DHT22;6528;48.086;16.282;2023-03-23T16:19:17;23.10;1.00
12922;DHT22;6528;48.086;16.282;2023-03-23T16:21:46;23.10;1.00
12922;DHT22;6528;48.086;16.282;2023-03-23T16:24:12;23.10;1.00
12922;DHT22;6528;48.086;16.282;2023-03-23T16:26:39;23.00;1.00
12922;DHT22;6528;48.086;16.282;2023-03-23T16:29:14;23.00;1.00
12922;DHT22;6528;48.086;16.282;2023-03-23T16:32:02;23.00;1.00
12922;DHT22;6528;48.086;16.282;2023-03-23T16:34:29;23.00;1.00
12922;DHT22;6528;48.086;16.282;2023-03-23T16:36:59;23.00;1.00
12922;DHT22;6528;48.086;16.282;2023-03-23T16:39:26;23.10;1.00
12922;DHT22;6528;48.086;16.282;2023-03-23T16:41:53;23.00;1.00
12922;DHT22;6528;48.086;16.282;2023-03-23T16:44:20;23.00;1.00
12922;DHT22;6528;48.086;16.282;2023-03-23T16:46:47;23.00;1.00
12922;DHT22;6528;48.086;16.282;2023-03-23T16:49:14;23.00;1.00
12922;DHT22;6528;48.086;16.282;2023-03-23T16:51:40;23.00;1.00
12922;DHT22;6528;48.086;16.282;2023-03-23T16:54:08;23.00;1.00
12922;DHT22;6528;48.086;16.282;2023-03-23T16:56:35;23.00;1.00
12922;DHT22;6528;48.086;16.282;2023-03-23T16:59:03;23.00;1.00
12922;DHT22;6528;48.086;16.282;2023-03-23T17:01:29;23.00;1.00
12922;DHT22;6528;48.086;16.282;2023-03-23T17:03:56;23.00;1.00
12922;DHT22;6528;48.086;16.282;2023-03-23T17:06:24;23.00;1.00
12922;DHT22;6528;48.086;16.282;2023-03-23T17:08:51;23.00;1.00
12922;DHT22;6528;48.086;16.282;2023-03-23T17:11:17;23.00;1.00
12922;DHT22;6528;48.086;16.282;2023-03-23T17:13:44;23.00;1.00
12922;DHT22;6528;48.086;16.282;2023-03-23T17:16:11;23.00;1.00
12922;DHT22;6528;48.086;16.282;2023-03-23T17:18:38;23.00;1.00
12922;DHT22;6528;48.086;16.282;2023-03-23T17:21:05;23.00;1.00
12922;DHT22;6528;48.086;16.282;2023-03-23T17:23:32;23.00;1.00
12922;DHT22;6528;48.086;16.282;2023-03-23T17:25:59;23.00;1.00
12922;DHT22;6528;48.086;16.282;2023-03-23T17:28:27;23.00;1.00
12922;DHT22;6528;48.086;16.282;2023-03-23T17:30:54;22.90;1.00
12922;DHT22;6528;48.086;16.282;2023-03-23T17:33:21;23.00;1.00
12922;DHT22;6528;48.086;16.282;2023-03-23T17:35:47;23.00;1.00
12922;DHT22;6528;48.086;16.282;2023-03-23T17:38:17;23.00;1.00
12922;DHT22;6528;48.086;16.282;2023-03-23T17:40:44;23.00;1.00
12922;DHT22;6528;48.086;16.282;2023-03-23T17:43:11;23.00;1.00
12922;DHT22;6528;48.086;16.282;2023-03-23T17:45:40;22.90;1.00